Plantation Key, Florida
Current Conditions -  °F | °C
As of 11:58 AM on Friday 19 Dec 2014 (Local Time) from KHST Reporting Station
Clear Clear  
Wind Chill: 76°   Ceiling: Unl
Heat Index: 76°   Visibility: 10mi
Dew Point: 61°   Wind: 9mph
Humidity: 59%   Direction: 50°NE
Pressure: 30.08"   Gusts: NA
Location:  25.0103°N, 80.5235°W
Report Text: KHST 191658Z AUTO 05008KT 10SM CLR 24/16 A3008 RMK AO2 SLP189 T02440159 $
Loading
Personal Weather Stations






























Interactive Weather Map New forecast layout! Learn more

10-Day Weather Forecast

Advertisements
Track Severe Weather on mobile